createdAt,value
2018-09-09T00:00:07.843Z,57.81
2018-09-09T00:02:36.933Z,57.83
2018-09-09T00:05:05.999Z,57.40
2018-09-09T00:07:34.695Z,56.97
2018-09-09T00:10:03.498Z,57.06
2018-09-09T00:12:32.973Z,56.87
2018-09-09T00:15:02.094Z,57.94
2018-09-09T00:17:30.808Z,57.24
2018-09-09T00:19:59.628Z,56.96
2018-09-09T00:22:29.485Z,57.60
2018-09-09T00:24:58.489Z,56.10
2018-09-09T00:27:27.086Z,56.36
2018-09-09T00:29:56.539Z,56.25
2018-09-09T00:32:26.127Z,56.61
2018-09-09T00:34:56.256Z,56.10
2018-09-09T00:37:24.845Z,56.43
2018-09-09T00:39:55.067Z,55.61
2018-09-09T00:42:24.380Z,56.35
2018-09-09T00:44:54.424Z,56.06
2018-09-09T00:47:24.087Z,56.22
2018-09-09T00:49:57.813Z,55.85
2018-09-09T00:52:33.900Z,55.24
2018-09-09T00:55:02.683Z,55.58
2018-09-09T00:57:31.336Z,56.34
2018-09-09T01:00:01.321Z,56.12
2018-09-09T01:02:30.865Z,55.87
2018-09-09T01:05:00.403Z,55.81
2018-09-09T01:07:30.969Z,55.98
2018-09-09T01:09:59.676Z,55.36
2018-09-09T01:12:28.816Z,55.80
2018-09-09T01:14:57.601Z,56.10
2018-09-09T01:17:26.753Z,57.03
2018-09-09T01:19:57.656Z,57.23
2018-09-09T01:22:26.319Z,56.23
2018-09-09T01:24:55.233Z,57.07
2018-09-09T01:27:23.925Z,56.95
2018-09-09T01:29:52.513Z,56.98
2018-09-09T01:32:21.226Z,56.66
2018-09-09T01:34:51.133Z,56.91
2018-09-09T01:37:20.484Z,57.29
2018-09-09T01:39:49.109Z,58.03
2018-09-09T01:42:17.976Z,57.64
2018-09-09T01:44:46.929Z,57.26
2018-09-09T01:47:16.615Z,57.23
2018-09-09T01:49:45.215Z,57.30
2018-09-09T01:52:14.663Z,56.62
2018-09-09T01:54:43.231Z,57.16
2018-09-09T01:57:12.996Z,56.89
2018-09-09T01:59:41.558Z,58.47
2018-09-09T02:02:11.348Z,58.21
2018-09-09T02:04:40.032Z,57.24
2018-09-09T02:07:08.728Z,57.62
2018-09-09T02:09:37.347Z,57.20
2018-09-09T02:12:05.917Z,56.81
2018-09-09T02:14:35.414Z,56.47
2018-09-09T02:17:04.711Z,56.44
2018-09-09T02:19:33.285Z,56.07
2018-09-09T02:22:01.963Z,56.70
2018-09-09T02:24:30.676Z,56.37
2018-09-09T02:26:59.321Z,56.75
2018-09-09T02:29:27.899Z,56.67
2018-09-09T02:31:56.496Z,56.23
2018-09-09T02:34:25.927Z,56.71
2018-09-09T02:36:54.537Z,57.23
2018-09-09T02:39:23.686Z,57.33
2018-09-09T02:41:53.134Z,57.92
2018-09-09T02:44:22.037Z,58.41
2018-09-09T02:46:50.694Z,58.05
2018-09-09T02:49:20.196Z,58.11
2018-09-09T02:51:48.819Z,58.69
2018-09-09T02:54:17.507Z,58.61
2018-09-09T02:56:46.336Z,59.09
2018-09-09T02:59:15.073Z,58.81
2018-09-09T03:01:44.310Z,58.80
2018-09-09T03:04:14.148Z,59.53
2018-09-09T03:06:42.766Z,59.49
2018-09-09T03:09:11.757Z,58.87
2018-09-09T03:11:41.392Z,58.18
2018-09-09T03:14:09.913Z,58.83
2018-09-09T03:16:39.304Z,58.86
2018-09-09T03:19:08.050Z,58.71
2018-09-09T03:21:37.845Z,58.19
2018-09-09T03:24:06.606Z,58.44
2018-09-09T03:26:35.216Z,58.38
2018-09-09T03:29:04.502Z,58.28
2018-09-09T03:31:33.204Z,59.06
2018-09-09T03:34:02.564Z,59.46
2018-09-09T03:36:32.173Z,59.45
2018-09-09T03:39:00.857Z,59.50
2018-09-09T03:41:30.302Z,59.95
2018-09-09T03:43:59.387Z,59.73
2018-09-09T03:46:29.703Z,59.75
2018-09-09T03:48:59.726Z,59.10
2018-09-09T03:51:29.312Z,60.13
2018-09-09T03:53:59.826Z,59.81
2018-09-09T03:56:28.566Z,59.97
2018-09-09T03:58:58.116Z,60.54
2018-09-09T04:01:27.851Z,60.18
2018-09-09T04:03:58.456Z,60.65
2018-09-09T04:06:27.168Z,60.69
2018-09-09T04:08:55.823Z,60.58
2018-09-09T04:11:24.489Z,60.42
2018-09-09T04:13:53.456Z,60.32
2018-09-09T04:16:22.744Z,61.19
2018-09-09T04:18:52.375Z,61.28
2018-09-09T04:21:22.072Z,60.87
2018-09-09T04:23:51.766Z,60.53
2018-09-09T04:26:20.776Z,60.79
2018-09-09T04:28:49.472Z,60.56
2018-09-09T04:31:18.837Z,60.55
2018-09-09T04:33:47.459Z,60.84
2018-09-09T04:36:16.088Z,61.77
2018-09-09T04:38:45.119Z,61.29
2018-09-09T04:41:14.158Z,62.14
2018-09-09T04:43:42.915Z,62.25
2018-09-09T04:46:12.217Z,62.83
2018-09-09T04:48:41.665Z,63.58
2018-09-09T04:51:11.304Z,63.44
2018-09-09T04:53:40.026Z,63.34
2018-09-09T04:56:10.032Z,63.85
2018-09-09T04:58:39.803Z,63.63
2018-09-09T05:01:09.943Z,64.21
2018-09-09T05:03:38.643Z,64.51
2018-09-09T05:06:07.293Z,64.05
2018-09-09T05:08:36.050Z,64.23
2018-09-09T05:11:05.882Z,64.53
2018-09-09T05:13:35.672Z,64.62
2018-09-09T05:16:04.358Z,64.54
2018-09-09T05:18:32.920Z,64.63
2018-09-09T05:21:03.328Z,64.81
2018-09-09T05:23:31.881Z,64.68
2018-09-09T05:26:02.941Z,64.32
2018-09-09T05:28:31.573Z,64.66
2018-09-09T05:31:03.314Z,64.65
2018-09-09T05:33:31.894Z,64.45
2018-09-09T05:36:02.225Z,64.70
2018-09-09T05:38:30.868Z,65.16
2018-09-09T05:40:59.777Z,64.68
2018-09-09T05:43:28.393Z,64.89
2018-09-09T05:45:57.261Z,65.26
2018-09-09T05:48:25.794Z,64.46
2018-09-09T05:50:54.373Z,64.40
2018-09-09T05:53:23.858Z,64.62
2018-09-09T05:55:53.205Z,64.12
2018-09-09T05:58:22.433Z,63.84
2018-09-09T06:00:52.756Z,63.83
2018-09-09T06:03:22.265Z,63.87
2018-09-09T06:05:51.421Z,63.92
2018-09-09T06:08:21.369Z,64.48
2018-09-09T06:10:53.359Z,64.28
2018-09-09T06:13:23.235Z,64.03
2018-09-09T06:15:51.865Z,62.99
2018-09-09T06:18:21.430Z,62.83
2018-09-09T06:20:51.042Z,62.76
2018-09-09T06:23:19.697Z,62.91
2018-09-09T06:25:49.731Z,62.67
2018-09-09T06:28:18.983Z,62.27
2018-09-09T06:30:48.071Z,62.55
2018-09-09T06:33:18.093Z,62.58
2018-09-09T06:35:46.859Z,62.34
2018-09-09T06:38:16.191Z,62.33
2018-09-09T06:40:45.193Z,61.62
2018-09-09T06:43:15.175Z,61.64
2018-09-09T06:45:47.115Z,61.28
2018-09-09T06:48:16.100Z,61.16
2018-09-09T06:50:45.107Z,60.21
2018-09-09T06:53:14.091Z,59.53
2018-09-09T06:55:42.704Z,58.54
2018-09-09T06:58:12.140Z,59.52
2018-09-09T07:00:41.448Z,66.99
2018-09-09T07:03:12.664Z,58.74
2018-09-09T07:05:41.520Z,62.58
2018-09-09T07:08:12.867Z,63.31
2018-09-09T07:10:42.710Z,61.22
2018-09-09T07:13:12.560Z,60.14
2018-09-09T07:15:43.472Z,57.30
2018-09-09T07:18:14.664Z,57.22
2018-09-09T07:20:46.142Z,57.02
2018-09-09T07:23:17.587Z,57.31
2018-09-09T07:25:47.258Z,56.90
2018-09-09T07:28:16.349Z,56.93
2018-09-09T07:30:45.744Z,57.17
2018-09-09T07:33:15.580Z,56.36
2018-09-09T07:35:45.541Z,56.93
2018-09-09T07:38:15.277Z,56.85
2018-09-09T07:40:43.867Z,56.57
2018-09-09T07:43:12.564Z,56.81
2018-09-09T07:45:41.276Z,55.94
2018-09-09T07:48:10.115Z,56.06
2018-09-09T07:50:41.703Z,56.76
2018-09-09T07:53:10.575Z,57.09
2018-09-09T07:55:39.220Z,57.07
2018-09-09T07:58:08.958Z,57.84
2018-09-09T08:00:38.268Z,56.91
2018-09-09T08:03:07.576Z,54.80
2018-09-09T08:05:36.427Z,54.95
2018-09-09T08:08:05.238Z,54.84
2018-09-09T08:10:35.684Z,55.64
2018-09-09T08:13:04.735Z,55.54
2018-09-09T08:15:33.378Z,57.30
2018-09-09T08:18:03.620Z,53.95
2018-09-09T08:20:32.671Z,55.21
2018-09-09T08:23:02.653Z,56.62
2018-09-09T08:25:31.526Z,56.84
2018-09-09T08:28:03.640Z,55.45
2018-09-09T08:30:33.231Z,52.18
2018-09-09T08:33:01.871Z,51.27
2018-09-09T08:35:32.052Z,52.22
2018-09-09T08:38:04.251Z,51.65
2018-09-09T08:40:33.425Z,51.71
2018-09-09T08:43:02.644Z,51.88
2018-09-09T08:45:32.038Z,51.20
2018-09-09T08:48:01.875Z,52.07
2018-09-09T08:50:31.250Z,52.18
2018-09-09T08:53:00.290Z,53.00
2018-09-09T08:55:30.084Z,52.35
2018-09-09T08:57:58.688Z,51.67
2018-09-09T09:00:27.462Z,51.77
2018-09-09T09:02:57.825Z,50.66
2018-09-09T09:05:27.411Z,49.69
2018-09-09T09:07:57.485Z,49.74
2018-09-09T09:10:27.066Z,49.72
2018-09-09T09:12:56.356Z,49.77
2018-09-09T09:15:26.528Z,49.73
2018-09-09T09:17:56.165Z,50.04
2018-09-09T09:20:25.490Z,49.56
2018-09-09T09:23:01.039Z,51.25
2018-09-09T09:25:29.880Z,50.13
2018-09-09T09:27:58.545Z,52.05
2018-09-09T09:30:27.637Z,49.62
2018-09-09T09:32:56.327Z,48.66
2018-09-09T09:35:30.346Z,48.69
2018-09-09T09:37:58.943Z,47.27
2018-09-09T09:40:28.703Z,47.48
2018-09-09T09:42:57.819Z,50.03
2018-09-09T09:45:26.532Z,48.17
2018-09-09T09:47:55.168Z,48.60
2018-09-09T09:50:24.405Z,48.99
2018-09-09T09:52:54.269Z,47.90
2018-09-09T09:55:22.962Z,48.15
2018-09-09T09:57:51.550Z,48.26
2018-09-09T10:00:26.272Z,47.79
2018-09-09T10:02:56.221Z,47.56
2018-09-09T10:05:24.936Z,46.06
2018-09-09T10:07:54.106Z,46.67
2018-09-09T10:10:24.068Z,46.40
2018-09-09T10:12:52.707Z,47.27
2018-09-09T10:15:21.469Z,47.17
2018-09-09T10:17:50.494Z,46.44
2018-09-09T10:20:20.778Z,45.80
2018-09-09T10:22:50.288Z,46.77
2018-09-09T10:25:19.671Z,46.08
2018-09-09T10:27:48.603Z,46.10
2018-09-09T10:30:18.039Z,45.66
2018-09-09T10:32:47.390Z,46.66
2018-09-09T10:35:16.508Z,44.99
2018-09-09T10:37:45.518Z,46.12
2018-09-09T10:40:14.390Z,45.68
2018-09-09T10:42:44.827Z,45.56
2018-09-09T10:45:13.749Z,45.51
2018-09-09T10:47:43.364Z,44.10
2018-09-09T10:50:12.184Z,43.88
2018-09-09T10:52:40.803Z,43.62
2018-09-09T10:55:09.526Z,44.13
2018-09-09T10:57:38.857Z,43.83
2018-09-09T11:00:08.696Z,44.20
2018-09-09T11:02:37.383Z,44.35
2018-09-09T11:05:21.360Z,43.65
2018-09-09T11:07:52.699Z,43.23
2018-09-09T11:10:22.341Z,43.85
2018-09-09T11:12:52.062Z,42.79
2018-09-09T11:15:24.354Z,42.48
2018-09-09T11:17:53.160Z,43.02
2018-09-09T11:20:22.656Z,42.45
2018-09-09T11:22:51.878Z,42.43
2018-09-09T11:25:21.436Z,42.49
2018-09-09T11:27:50.265Z,42.69
2018-09-09T11:30:18.918Z,42.23
2018-09-09T11:32:47.860Z,42.53
2018-09-09T11:35:16.569Z,41.80
2018-09-09T11:37:46.246Z,42.41
2018-09-09T11:40:15.578Z,42.32
2018-09-09T11:42:44.434Z,42.90
2018-09-09T11:45:14.313Z,42.22
2018-09-09T11:47:42.890Z,40.97
2018-09-09T11:50:13.008Z,40.91
2018-09-09T11:52:41.605Z,40.35
2018-09-09T11:55:10.261Z,40.22
2018-09-09T11:57:40.472Z,39.72
2018-09-09T12:00:09.178Z,39.59
2018-09-09T12:02:37.693Z,40.12
2018-09-09T12:05:06.823Z,38.94
2018-09-09T12:07:36.469Z,38.96
2018-09-09T12:10:07.367Z,38.68
2018-09-09T12:12:35.913Z,39.62
2018-09-09T12:15:05.079Z,38.78
2018-09-09T12:17:34.670Z,38.89
2018-09-09T12:20:04.972Z,38.91
2018-09-09T12:22:34.629Z,38.80
2018-09-09T12:25:05.313Z,39.53
2018-09-09T12:27:35.456Z,39.52
2018-09-09T12:30:04.036Z,39.05
2018-09-09T12:32:34.428Z,39.07
2018-09-09T12:35:03.317Z,38.49
2018-09-09T12:37:33.812Z,39.27
2018-09-09T12:40:02.427Z,39.98
2018-09-09T12:42:31.335Z,39.64
2018-09-09T12:45:06.142Z,39.10
2018-09-09T12:47:40.387Z,37.88
2018-09-09T12:50:10.341Z,38.05
2018-09-09T12:52:40.666Z,38.72
2018-09-09T12:55:09.773Z,37.83
2018-09-09T12:57:39.100Z,38.03
2018-09-09T13:00:08.263Z,36.71
2018-09-09T13:02:37.707Z,37.57
2018-09-09T13:05:08.568Z,36.43
2018-09-09T13:07:37.778Z,36.48
2018-09-09T13:10:08.045Z,36.19
2018-09-09T13:12:42.104Z,37.24
2018-09-09T13:15:11.721Z,37.01
2018-09-09T13:17:40.810Z,36.57
2018-09-09T13:20:10.004Z,37.52
2018-09-09T13:22:39.169Z,37.13
2018-09-09T13:25:09.826Z,37.51
2018-09-09T13:27:39.927Z,36.82
2018-09-09T13:30:09.076Z,37.16
2018-09-09T13:32:37.747Z,37.05
2018-09-09T13:35:06.535Z,37.12
2018-09-09T13:37:36.270Z,37.15
2018-09-09T13:40:05.018Z,37.34
2018-09-09T13:42:33.976Z,37.62
2018-09-09T13:45:03.887Z,37.99
2018-09-09T13:47:32.584Z,38.57
2018-09-09T13:50:02.510Z,37.92
2018-09-09T13:52:31.326Z,38.73
2018-09-09T13:55:01.041Z,38.27
2018-09-09T13:57:32.627Z,38.46
2018-09-09T14:00:02.314Z,38.51
2018-09-09T14:02:31.912Z,38.23
2018-09-09T14:05:01.384Z,39.32
2018-09-09T14:07:30.429Z,39.27
2018-09-09T14:09:59.501Z,38.65
2018-09-09T14:12:28.318Z,38.60
2018-09-09T14:14:56.865Z,39.21
2018-09-09T14:17:26.047Z,38.85
2018-09-09T14:19:54.745Z,38.40
2018-09-09T14:22:23.828Z,38.11
2018-09-09T14:24:52.771Z,39.20
2018-09-09T14:27:22.237Z,39.53
2018-09-09T14:29:51.724Z,38.61
2018-09-09T14:32:21.210Z,38.25
2018-09-09T14:34:50.533Z,39.24
2018-09-09T14:37:20.852Z,38.43
2018-09-09T14:39:50.817Z,38.56
2018-09-09T14:42:20.671Z,38.80
2018-09-09T14:44:49.533Z,38.94
2018-09-09T14:47:19.699Z,37.95
2018-09-09T14:49:49.601Z,39.15
2018-09-09T14:52:19.715Z,38.86
2018-09-09T14:54:48.397Z,39.00
2018-09-09T14:57:17.285Z,37.57
2018-09-09T14:59:46.276Z,37.48
2018-09-09T15:02:15.293Z,37.11
2018-09-09T15:04:45.052Z,36.45
2018-09-09T15:07:14.342Z,35.78
2018-09-09T15:09:43.860Z,35.11
2018-09-09T15:12:13.379Z,34.98
2018-09-09T15:14:42.158Z,35.83
2018-09-09T15:17:11.570Z,35.86
2018-09-09T15:19:41.426Z,35.99
2018-09-09T15:22:11.623Z,35.18
2018-09-09T15:24:40.340Z,35.16
2018-09-09T15:27:09.432Z,35.58
2018-09-09T15:29:38.015Z,35.15
2018-09-09T15:32:08.053Z,34.67
2018-09-09T15:34:37.696Z,34.72
2018-09-09T15:37:07.012Z,35.32
2018-09-09T15:39:35.605Z,34.84
2018-09-09T15:42:05.164Z,35.52
2018-09-09T15:44:35.027Z,35.03
2018-09-09T15:47:04.848Z,35.53
2018-09-09T15:49:34.047Z,35.04
2018-09-09T15:52:03.031Z,35.40
2018-09-09T15:54:31.834Z,35.61
2018-09-09T15:57:00.421Z,36.42
2018-09-09T15:59:29.056Z,36.05
2018-09-09T16:01:57.768Z,36.30
2018-09-09T16:04:33.203Z,38.10
2018-09-09T16:07:04.843Z,37.84
2018-09-09T16:09:42.537Z,38.77
2018-09-09T16:12:11.944Z,39.18
2018-09-09T16:14:41.724Z,39.25
2018-09-09T16:17:10.910Z,38.61
2018-09-09T16:19:40.428Z,38.58
2018-09-09T16:22:09.396Z,39.44
2018-09-09T16:24:38.068Z,40.04
2018-09-09T16:27:08.134Z,40.61
2018-09-09T16:29:38.258Z,40.99
2018-09-09T16:32:06.833Z,40.93
2018-09-09T16:34:36.242Z,39.46
2018-09-09T16:37:05.727Z,41.27
2018-09-09T16:39:34.895Z,41.27
2018-09-09T16:42:04.085Z,41.98
2018-09-09T16:44:32.840Z,42.60
2018-09-09T16:47:02.039Z,42.03
2018-09-09T16:49:30.789Z,41.88
2018-09-09T16:52:00.505Z,41.60
2018-09-09T16:54:29.205Z,40.32
2018-09-09T16:56:58.824Z,40.20
2018-09-09T16:59:28.057Z,39.66
2018-09-09T17:01:57.963Z,39.84
2018-09-09T17:04:26.793Z,39.96
2018-09-09T17:06:55.507Z,41.10
2018-09-09T17:09:24.798Z,41.61
2018-09-09T17:11:53.619Z,42.03
2018-09-09T17:14:22.478Z,42.19
2018-09-09T17:16:51.992Z,42.65
2018-09-09T17:19:21.711Z,42.76
2018-09-09T17:21:50.450Z,43.52
2018-09-09T17:24:21.299Z,43.24
2018-09-09T17:26:49.999Z,44.41
2018-09-09T17:29:19.002Z,44.78
2018-09-09T17:31:48.019Z,45.02
2018-09-09T17:34:16.601Z,44.57
2018-09-09T17:36:45.146Z,44.65
2018-09-09T17:39:13.726Z,45.79
2018-09-09T17:41:43.166Z,45.94
2018-09-09T17:44:12.700Z,46.25
2018-09-09T17:46:41.410Z,47.50
2018-09-09T17:49:10.938Z,47.30
2018-09-09T17:51:39.775Z,48.75
2018-09-09T17:54:08.466Z,48.78
2018-09-09T17:56:39.196Z,49.33
2018-09-09T17:59:08.673Z,50.17
2018-09-09T18:01:37.469Z,49.90
2018-09-09T18:04:06.371Z,51.44
2018-09-09T18:06:35.168Z,51.39
2018-09-09T18:09:06.861Z,51.29
2018-09-09T18:11:36.207Z,51.60
2018-09-09T18:14:05.458Z,51.78
2018-09-09T18:16:34.162Z,52.02
2018-09-09T18:19:03.655Z,51.94
2018-09-09T18:21:33.744Z,53.14
2018-09-09T18:24:02.985Z,53.06
2018-09-09T18:26:32.127Z,52.71
2018-09-09T18:29:00.757Z,53.09
2018-09-09T18:31:29.358Z,52.81
2018-09-09T18:33:58.097Z,53.50
2018-09-09T18:36:26.734Z,53.97
2018-09-09T18:38:55.580Z,53.81
2018-09-09T18:41:24.248Z,53.95
2018-09-09T18:43:53.249Z,54.45
2018-09-09T18:46:21.970Z,53.63
2018-09-09T18:48:56.614Z,53.23
2018-09-09T18:51:31.540Z,54.78
2018-09-09T18:54:00.434Z,53.93
2018-09-09T18:56:29.185Z,54.10
2018-09-09T18:58:58.007Z,54.33
2018-09-09T19:01:26.842Z,54.36
2018-09-09T19:03:55.967Z,55.53
2018-09-09T19:06:26.798Z,54.70
2018-09-09T19:08:56.068Z,54.78
2018-09-09T19:11:26.044Z,55.12
2018-09-09T19:13:56.100Z,54.69
2018-09-09T19:16:27.841Z,55.04
2018-09-09T19:18:56.891Z,55.75
2018-09-09T19:21:26.485Z,56.18
2018-09-09T19:23:56.209Z,55.69
2018-09-09T19:26:26.346Z,55.47
2018-09-09T19:28:57.022Z,56.83
2018-09-09T19:31:27.208Z,56.30
2018-09-09T19:33:57.245Z,57.39
2018-09-09T19:36:27.490Z,56.21
2018-09-09T19:38:56.540Z,56.90
2018-09-09T19:41:27.748Z,56.55
2018-09-09T19:43:57.277Z,56.84
2018-09-09T19:46:27.274Z,57.13
2018-09-09T19:48:57.012Z,57.15
2018-09-09T19:51:25.871Z,57.39
2018-09-09T19:53:54.885Z,57.27
2018-09-09T19:56:23.618Z,57.75
2018-09-09T19:58:53.841Z,58.27
2018-09-09T20:01:22.802Z,58.36
2018-09-09T20:03:51.623Z,58.20
2018-09-09T20:06:21.220Z,58.05
2018-09-09T20:08:50.769Z,58.56
2018-09-09T20:11:21.295Z,58.74
2018-09-09T20:13:50.946Z,59.25
2018-09-09T20:16:20.469Z,58.92
2018-09-09T20:18:56.349Z,59.13
2018-09-09T20:21:24.947Z,59.44
2018-09-09T20:23:53.870Z,59.67
2018-09-09T20:26:23.248Z,59.31
2018-09-09T20:28:52.207Z,59.34
2018-09-09T20:31:22.566Z,60.01
2018-09-09T20:33:51.228Z,59.46
2018-09-09T20:36:21.153Z,59.03
2018-09-09T20:38:49.857Z,58.94
2018-09-09T20:41:18.849Z,58.49
2018-09-09T20:43:47.612Z,59.14
2018-09-09T20:46:16.430Z,58.97
2018-09-09T20:48:46.287Z,58.73
2018-09-09T20:51:14.899Z,58.56
2018-09-09T20:53:43.638Z,59.39
2018-09-09T20:56:12.319Z,58.91
2018-09-09T20:58:41.035Z,59.12
2018-09-09T21:01:09.662Z,59.39
2018-09-09T21:03:38.283Z,58.93
2018-09-09T21:06:06.927Z,59.06
2018-09-09T21:08:38.119Z,59.50
2018-09-09T21:11:06.884Z,59.16
2018-09-09T21:13:36.086Z,59.12
2018-09-09T21:16:04.814Z,59.55
2018-09-09T21:18:33.579Z,59.50
2018-09-09T21:21:03.264Z,59.70
2018-09-09T21:23:31.836Z,60.14
2018-09-09T21:26:00.619Z,59.40
2018-09-09T21:28:29.236Z,59.31
2018-09-09T21:30:58.771Z,58.84
2018-09-09T21:33:27.506Z,59.37
2018-09-09T21:35:56.476Z,58.33
2018-09-09T21:38:25.898Z,59.07
2018-09-09T21:40:54.596Z,58.75
2018-09-09T21:43:26.754Z,59.32
2018-09-09T21:45:55.898Z,59.66
2018-09-09T21:48:25.001Z,59.16
2018-09-09T21:50:53.776Z,59.31
2018-09-09T21:53:22.293Z,59.71
2018-09-09T21:55:51.624Z,59.94
2018-09-09T21:58:20.769Z,59.72
2018-09-09T22:00:54.594Z,60.04
2018-09-09T22:03:23.281Z,60.13
2018-09-09T22:05:52.237Z,60.33
2018-09-09T22:08:21.208Z,59.76
2018-09-09T22:10:50.242Z,59.81
2018-09-09T22:13:19.058Z,59.46
2018-09-09T22:15:48.420Z,58.70
2018-09-09T22:18:18.934Z,58.33
2018-09-09T22:20:48.283Z,58.62
2018-09-09T22:23:17.053Z,59.65
2018-09-09T22:25:45.764Z,59.26
2018-09-09T22:28:14.358Z,59.48
2018-09-09T22:30:44.048Z,59.06
2018-09-09T22:33:13.168Z,59.04
2018-09-09T22:35:42.220Z,59.66
2018-09-09T22:38:10.814Z,59.84
2018-09-09T22:40:39.516Z,60.30
2018-09-09T22:43:08.470Z,60.41
2018-09-09T22:45:37.435Z,60.60
2018-09-09T22:48:06.147Z,60.43
2018-09-09T22:50:34.725Z,61.02
2018-09-09T22:53:03.587Z,60.98
2018-09-09T22:55:32.609Z,60.33
2018-09-09T22:58:01.470Z,60.28
2018-09-09T23:00:31.604Z,59.89
2018-09-09T23:03:00.236Z,60.39
2018-09-09T23:05:29.093Z,60.68
2018-09-09T23:07:57.873Z,60.75
2018-09-09T23:10:26.598Z,60.72
2018-09-09T23:12:55.279Z,60.82
2018-09-09T23:15:27.395Z,61.25
2018-09-09T23:17:56.516Z,61.01
2018-09-09T23:20:25.090Z,61.15
2018-09-09T23:22:54.256Z,60.52
2018-09-09T23:25:23.749Z,60.03
2018-09-09T23:27:52.716Z,61.03
2018-09-09T23:30:21.967Z,60.08
2018-09-09T23:32:50.928Z,60.62
2018-09-09T23:35:19.441Z,60.50
2018-09-09T23:37:48.051Z,60.12
2018-09-09T23:40:16.874Z,59.97
2018-09-09T23:42:47.453Z,60.24
2018-09-09T23:45:16.345Z,60.48
2018-09-09T23:47:45.154Z,60.77
2018-09-09T23:50:13.699Z,60.53
2018-09-09T23:52:42.271Z,60.36
2018-09-09T23:55:11.139Z,60.50
2018-09-09T23:57:39.736Z,59.97
